Time;durP1;ratioP1;P1;durP2;ratioP2;P2;SDS_P1;SDS_P2;PMS_P1;PMS_P2;Temp;Humidity;BMP_temperature;BMP_pressure;BME280_temperature;BME280_humidity;BME280_pressure;Samples;Min_cycle;Max_cycle;Signal;HPM_P1;HPM_P2
2022/06/14 00:02:50;;;;;;;1.95;0.50;;;12.50;99.90;;;;;;20739665;28;20049;-41
2022/06/14 00:12:52;;;;;;;1.48;0.50;;;12.40;99.90;;;;;;20721311;28;20058;-40
2022/06/14 00:22:53;;;;;;;1.42;0.43;;;12.40;99.90;;;;;;20749203;28;20641;-40
2022/06/14 00:32:54;;;;;;;1.27;0.57;;;12.20;99.90;;;;;;20744937;28;22461;-40
2022/06/14 00:42:55;;;;;;;2.03;0.60;;;12.00;99.90;;;;;;20736578;28;20061;-41
2022/06/14 00:53:25;;;;;;;1.35;0.70;;;12.00;99.90;;;;;;20716320;28;20057;-40
2022/06/14 01:03:32;;;;;;;3.35;1.65;;;12.20;99.90;;;;;;20744242;28;21339;-40
2022/06/14 01:13:34;;;;;;;1.60;0.52;;;12.00;99.90;;;;;;20757635;28;20045;-41
2022/06/14 01:23:36;;;;;;;1.73;0.40;;;12.00;99.90;;;;;;20772595;28;20030;-40
2022/06/14 01:33:50;;;;;;;7.00;0.57;;;12.00;99.90;;;;;;20781663;28;20041;-40
2022/06/14 01:44:09;;;;;;;0.93;0.43;;;11.90;99.90;;;;;;20766742;28;20052;-41
2022/06/14 01:54:22;;;;;;;0.55;0.30;;;11.70;99.90;;;;;;20748862;28;20299;-41
2022/06/14 02:04:41;;;;;;;1.73;0.50;;;11.70;99.90;;;;;;20796776;28;20342;-41
2022/06/14 02:14:51;;;;;;;1.23;0.50;;;11.70;99.90;;;;;;20798572;28;20049;-41
2022/06/14 02:25:05;;;;;;;2.85;0.55;;;11.50;99.90;;;;;;20793927;28;20036;-41
2022/06/14 02:35:27;;;;;;;0.90;0.32;;;11.40;99.90;;;;;;20793972;28;20068;-41
2022/06/14 02:45:43;;;;;;;1.70;0.43;;;11.30;99.90;;;;;;20798140;28;20457;-41
2022/06/14 02:55:51;;;;;;;4.38;0.60;;;11.30;99.90;;;;;;20798152;28;21428;-41
2022/06/14 03:06:23;;;;;;;1.50;0.60;;;11.30;99.90;;;;;;20796586;28;20492;-41
2022/06/14 03:16:55;;;;;;;2.42;0.60;;;11.10;99.90;;;;;;20796989;28;20052;-41
2022/06/14 03:27:21;;;;;;;1.50;0.40;;;11.10;99.90;;;;;;20780472;28;20361;-41
2022/06/14 03:37:22;;;;;;;1.85;0.47;;;11.10;99.90;;;;;;20793589;28;20056;-41
2022/06/14 03:47:28;;;;;;;1.35;0.40;;;11.10;99.90;;;;;;20804672;28;20034;-41
2022/06/14 03:57:40;;;;;;;1.48;0.40;;;11.00;99.90;;;;;;20766574;28;20045;-41
2022/06/14 04:08:05;;;;;;;1.95;0.43;;;11.00;99.90;;;;;;20789757;28;20041;-41
2022/06/14 04:18:34;;;;;;;1.80;0.57;;;10.90;99.90;;;;;;20790631;28;20536;-41
2022/06/14 04:28:42;;;;;;;1.48;0.60;;;10.90;99.90;;;;;;20786650;28;20044;-42
2022/06/14 04:38:49;;;;;;;2.55;0.57;;;11.00;99.90;;;;;;20784816;28;20041;-42
2022/06/14 04:49:07;;;;;;;1.47;0.43;;;11.20;99.90;;;;;;20758855;28;20042;-41
2022/06/14 04:59:12;;;;;;;2.05;0.70;;;11.30;99.90;;;;;;20774008;28;20044;-41
2022/06/14 05:09:37;;;;;;;1.60;0.68;;;11.50;99.90;;;;;;20810479;28;21377;-41
2022/06/14 05:19:48;;;;;;;1.42;0.40;;;11.80;99.90;;;;;;20754203;28;20052;-41
2022/06/14 05:30:18;;;;;;;1.42;0.40;;;12.20;99.90;;;;;;20788152;28;20197;-40
2022/06/14 05:40:31;;;;;;;1.20;0.40;;;12.40;99.90;;;;;;20797791;28;20048;-41
2022/06/14 05:50:45;;;;;;;1.77;1.25;;;12.90;99.90;;;;;;20801275;28;20216;-40
2022/06/14 06:01:00;;;;;;;1.65;0.45;;;13.20;99.90;;;;;;20796782;28;20196;-42
2022/06/14 06:11:19;;;;;;;2.70;0.38;;;13.50;99.90;;;;;;20812609;28;20045;-40
2022/06/14 06:21:26;;;;;;;1.52;0.60;;;14.00;99.90;;;;;;20822078;28;20443;-42
2022/06/14 06:31:30;;;;;;;1.23;0.40;;;14.20;99.90;;;;;;20811983;28;20508;-42
2022/06/14 06:41:54;;;;;;;4.38;0.60;;;14.40;99.90;;;;;;20810151;28;20044;-42
2022/06/14 06:52:00;;;;;;;1.55;0.55;;;14.60;99.90;;;;;;20786932;28;20446;-42
2022/06/14 07:02:13;;;;;;;3.70;0.60;;;14.90;99.90;;;;;;20814276;28;20126;-42
2022/06/14 07:12:25;;;;;;;0.60;0.20;;;15.30;99.90;;;;;;20817982;28;20706;-42
2022/06/14 07:22:51;;;;;;;0.85;0.35;;;15.30;99.90;;;;;;20808407;28;20034;-42
2022/06/14 07:32:55;;;;;;;0.45;0.10;;;15.40;99.90;;;;;;20763272;28;20046;-40
2022/06/14 07:43:11;;;;;;;0.70;0.30;;;15.40;99.90;;;;;;20785923;28;20512;-40
2022/06/14 07:53:34;;;;;;;1.13;0.32;;;15.60;99.90;;;;;;20804972;28;20049;-40
2022/06/14 08:03:39;;;;;;;1.25;0.40;;;15.80;99.90;;;;;;20797884;28;20469;-40
2022/06/14 08:13:47;;;;;;;1.02;0.30;;;15.90;99.90;;;;;;20762478;28;20431;-40
2022/06/14 08:23:56;;;;;;;0.77;0.30;;;16.00;99.90;;;;;;20769038;28;20044;-40
2022/06/14 08:34:06;;;;;;;1.00;0.30;;;16.10;99.90;;;;;;20782544;28;20137;-40
2022/06/14 08:44:14;;;;;;;1.30;0.68;;;16.50;99.90;;;;;;20814802;28;20049;-40
2022/06/14 08:54:48;;;;;;;1.03;0.30;;;16.70;99.90;;;;;;20817834;28;20045;-40
2022/06/14 09:05:30;;;;;;;1.23;0.60;;;17.00;99.90;;;;;;20794341;28;21440;-40
2022/06/14 09:16:01;;;;;;;0.98;0.30;;;17.30;99.90;;;;;;20806541;28;20591;-40
2022/06/14 09:26:32;;;;;;;0.88;0.35;;;17.50;99.90;;;;;;20812605;28;20037;-40
2022/06/14 09:36:55;;;;;;;0.75;0.38;;;17.90;99.90;;;;;;20817848;28;21535;-40
2022/06/14 09:47:34;;;;;;;0.63;0.22;;;18.30;99.90;;;;;;20812162;28;21853;-40
2022/06/14 09:57:53;;;;;;;;;;;18.80;99.90;;;;;;20809352;28;20485;-40
2022/06/14 10:08:05;;;;;;;2.15;0.70;;;19.10;99.90;;;;;;20789370;28;20488;-40
2022/06/14 10:18:28;;;;;;;0.98;0.20;;;18.90;99.90;;;;;;20796277;28;20057;-40
2022/06/14 10:29:09;;;;;;;0.55;0.20;;;18.40;99.90;;;;;;20835343;28;21279;-40
2022/06/14 10:39:18;;;;;;;2.38;0.60;;;18.50;99.90;;;;;;20822799;28;20048;-40
2022/06/14 10:49:25;;;;;;;1.38;0.43;;;18.40;99.90;;;;;;20814536;28;20457;-40
2022/06/14 10:59:50;;;;;;;0.90;0.53;;;18.60;99.90;;;;;;20806380;28;20041;-40
2022/06/14 11:10:07;;;;;;;0.95;0.50;;;19.00;99.90;;;;;;20827554;28;20041;-40
2022/06/14 11:20:17;;;;;;;0.73;0.22;;;19.50;99.90;;;;;;20824170;28;20045;-40
2022/06/14 11:30:35;;;;;;;2.80;0.50;;;19.90;99.90;;;;;;20825437;28;20076;-41
2022/06/14 11:40:44;;;;;;;1.58;0.30;;;20.10;99.90;;;;;;20809286;28;20055;-40
2022/06/14 11:50:52;;;;;;;2.03;0.68;;;20.10;99.90;;;;;;20775179;28;20516;-40
2022/06/14 12:01:00;;;;;;;0.73;0.32;;;19.50;99.90;;;;;;20803351;28;20049;-40
2022/06/14 12:11:19;;;;;;;2.17;0.60;;;19.10;99.90;;;;;;20812717;28;20042;-40
2022/06/14 12:21:43;;;;;;;0.30;0.20;;;19.50;99.90;;;;;;20806893;28;20849;-40
2022/06/14 12:31:53;;;;;;;1.65;0.35;;;20.60;99.90;;;;;;20733707;28;21613;-41
2022/06/14 12:42:01;;;;;;;0.90;0.40;;;21.20;99.90;;;;;;20788564;28;20416;-40
2022/06/14 12:52:35;;;;;;;2.53;0.80;;;21.30;99.90;;;;;;20809461;28;20053;-40
2022/06/14 13:02:44;;;;;;;0.85;0.20;;;21.10;99.90;;;;;;20804573;28;21322;-40
2022/06/14 13:13:04;;;;;;;1.08;0.63;;;20.20;99.90;;;;;;20804018;28;20338;-40
2022/06/14 13:23:34;;;;;;;0.95;0.45;;;20.00;99.90;;;;;;20812886;28;20033;-40
2022/06/14 13:33:53;;;;;;;1.05;0.45;;;20.20;99.90;;;;;;20811615;28;20909;-40
2022/06/14 13:44:01;;;;;;;2.13;0.32;;;20.60;99.90;;;;;;20796468;28;21791;-40
2022/06/14 13:54:24;;;;;;;2.35;0.73;;;20.30;99.90;;;;;;20773628;28;23076;-40
2022/06/14 14:05:03;;;;;;;0.68;0.30;;;20.60;99.90;;;;;;20795077;28;20076;-40
2022/06/14 14:15:12;;;;;;;0.40;0.20;;;20.70;99.90;;;;;;20801545;28;20056;-40
2022/06/14 14:25:34;;;;;;;1.48;0.50;;;20.30;99.90;;;;;;20816191;28;20469;-40
2022/06/14 14:35:41;;;;;;;1.02;0.40;;;20.40;99.90;;;;;;20813829;28;20161;-40
2022/06/14 14:45:50;;;;;;;1.45;0.60;;;20.90;99.90;;;;;;20816692;28;20419;-40
2022/06/14 14:56:06;;;;;;;0.65;0.20;;;21.20;99.90;;;;;;20811890;28;20531;-40
2022/06/14 15:06:13;;;;;;;1.08;0.30;;;20.90;99.90;;;;;;20799855;28;20496;-40
2022/06/14 15:16:28;;;;;;;0.87;0.30;;;20.60;99.90;;;;;;20812009;28;20131;-40
2022/06/14 15:26:30;;;;;;;1.02;0.40;;;20.80;99.90;;;;;;20804889;28;20037;-40
2022/06/14 15:36:35;;;;;;;1.00;0.35;;;21.00;99.90;;;;;;20817911;28;20053;-40
2022/06/14 15:46:36;;;;;;;1.63;0.60;;;20.80;99.90;;;;;;20809799;28;20626;-40
2022/06/14 15:56:41;;;;;;;1.23;0.40;;;20.80;99.90;;;;;;20806855;28;20057;-40
2022/06/14 16:06:52;;;;;;;1.02;0.30;;;20.80;99.90;;;;;;20811208;28;20537;-40
2022/06/14 16:17:04;;;;;;;1.70;0.82;;;20.80;99.90;;;;;;20788860;28;20045;-40
2022/06/14 16:27:25;;;;;;;1.75;0.95;;;20.80;99.90;;;;;;20812575;28;20037;-40
2022/06/14 16:37:43;;;;;;;0.80;0.45;;;20.70;99.90;;;;;;20804004;28;21492;-40
2022/06/14 16:47:44;;;;;;;;;;;20.70;99.90;;;;;;20788337;28;20614;-40
2022/06/14 16:58:05;;;;;;;0.65;0.30;;;20.50;99.90;;;;;;20808597;28;19936;-41
2022/06/14 17:08:36;;;;;;;0.50;0.20;;;20.40;99.90;;;;;;20807602;28;20060;-40
2022/06/14 17:18:49;;;;;;;1.65;0.38;;;20.20;99.90;;;;;;20813475;28;21001;-40
2022/06/14 17:39:24;;;;;;;;;;;19.80;99.90;;;;;;20808810;28;21427;-40
2022/06/14 17:49:39;;;;;;;1.38;0.60;;;19.80;99.90;;;;;;20787258;28;19917;-40
2022/06/14 17:59:55;;;;;;;0.90;0.40;;;19.60;99.90;;;;;;20783595;28;21388;-40
2022/06/14 18:10:00;;;;;;;0.88;0.20;;;19.50;99.90;;;;;;20764007;28;20512;-40
2022/06/14 18:30:41;;;;;;;0.63;0.30;;;19.10;99.90;;;;;;20801992;28;20040;-40
2022/06/14 18:40:42;;;;;;;1.65;0.70;;;19.00;99.90;;;;;;20735582;28;20799;-40
2022/06/14 18:50:46;;;;;;;1.15;0.50;;;18.90;99.90;;;;;;20784087;28;20037;-40
2022/06/14 19:01:20;;;;;;;0.90;0.40;;;18.80;99.90;;;;;;20775958;28;20053;-40
2022/06/14 19:11:44;;;;;;;1.25;0.40;;;18.70;99.90;;;;;;20765176;28;20455;-40
2022/06/14 19:22:16;;;;;;;0.55;0.28;;;18.60;99.90;;;;;;20789411;28;20029;-41
2022/06/14 19:33:01;;;;;;;2.35;1.27;;;18.40;99.90;;;;;;20745734;28;20819;-40
2022/06/14 19:43:08;;;;;;;1.38;0.82;;;18.30;99.90;;;;;;20704730;28;20438;-41
2022/06/14 19:53:13;;;;;;;0.88;0.60;;;18.20;99.90;;;;;;20756814;28;20052;-40
2022/06/14 20:03:48;;;;;;;0.73;0.30;;;18.10;99.90;;;;;;20776454;28;20041;-40
2022/06/14 20:13:50;;;;;;;1.30;0.60;;;17.90;99.90;;;;;;20741980;28;20045;-41
2022/06/14 20:23:52;;;;;;;0.75;0.30;;;17.80;99.90;;;;;;20790437;28;20053;-40
2022/06/14 20:34:05;;;;;;;1.17;0.50;;;17.60;99.90;;;;;;20785963;28;20045;-40
2022/06/14 20:44:12;;;;;;;1.75;0.40;;;17.50;99.90;;;;;;20781927;28;20083;-40
2022/06/14 20:54:13;;;;;;;2.15;0.80;;;17.40;99.90;;;;;;20774449;28;20044;-40
2022/06/14 21:04:14;;;;;;;3.88;1.00;;;17.20;99.90;;;;;;20784914;28;21413;-40
2022/06/14 21:14:21;;;;;;;0.70;0.22;;;17.00;99.90;;;;;;20792932;28;20041;-40
2022/06/14 21:24:37;;;;;;;0.93;0.33;;;16.80;99.90;;;;;;20802625;28;20040;-40
2022/06/14 21:35:00;;;;;;;0.73;0.30;;;16.70;99.90;;;;;;20807719;28;20068;-40
2022/06/14 21:45:01;;;;;;;1.38;0.32;;;16.60;99.90;;;;;;20800973;28;21385;-40
2022/06/14 21:55:09;;;;;;;0.70;0.38;;;16.50;99.90;;;;;;20804723;28;20059;-40
2022/06/14 22:05:10;;;;;;;1.75;0.32;;;16.30;99.90;;;;;;20803553;28;20053;-40
2022/06/14 22:15:13;;;;;;;1.38;0.45;;;16.10;99.90;;;;;;20807240;28;20060;-40
2022/06/14 22:25:14;;;;;;;1.52;0.50;;;16.00;99.90;;;;;;20803687;28;21411;-40
2022/06/14 22:35:18;;;;;;;1.17;0.73;;;15.90;99.90;;;;;;20813914;28;20056;-40
2022/06/14 22:45:26;;;;;;;1.40;0.40;;;15.80;99.90;;;;;;20793364;28;20064;-40
2022/06/14 22:55:28;;;;;;;1.48;0.40;;;15.70;99.90;;;;;;20793054;28;20131;-40
2022/06/14 23:05:29;;;;;;;0.95;0.40;;;15.60;99.90;;;;;;20795751;28;20037;-40
2022/06/14 23:15:30;;;;;;;2.55;0.70;;;15.60;99.90;;;;;;20793086;28;20037;-40
2022/06/14 23:25:31;;;;;;;2.60;0.90;;;15.40;99.90;;;;;;20796953;28;20385;-40
2022/06/14 23:35:34;;;;;;;1.27;0.50;;;15.30;99.90;;;;;;20792155;28;20053;-40
2022/06/14 23:45:35;;;;;;;1.50;0.75;;;15.20;99.90;;;;;;20790472;28;20041;-40
2022/06/14 23:55:40;;;;;;;1.65;0.57;;;15.10;99.90;;;;;;20785826;28;20497;-40
